Time;durP1;ratioP1;P1;durP2;ratioP2;P2;SDS_P1;SDS_P2;PMS_P1;PMS_P2;Temp;Humidity;BMP_temperature;BMP_pressure;BME280_temperature;BME280_humidity;BME280_pressure;Samples;Min_cycle;Max_cycle;Signal;HPM_P1;HPM_P2
2023/08/14 00:01:52;;;;;;;3.00;2.58;;;;;;;;;;5078502;28;20252;-91
2023/08/14 00:04:20;;;;;;;2.50;2.30;;;;;;;;;;5078223;28;20237;-91
2023/08/14 00:06:47;;;;;;;2.75;2.53;;;;;;;;;;5077688;28;20221;-90
2023/08/14 00:09:14;;;;;;;3.38;2.55;;;;;;;;;;5078399;28;20678;-90
2023/08/14 00:11:41;;;;;;;2.95;2.58;;;;;;;;;;5077502;28;20235;-91
2023/08/14 00:14:09;;;;;;;3.08;2.20;;;;;;;;;;5078278;28;20231;-90
2023/08/14 00:16:36;;;;;;;2.72;2.42;;;;;;;;;;5077720;28;20217;-91
2023/08/14 00:19:03;;;;;;;2.50;2.30;;;;;;;;;;5078043;28;20655;-90
2023/08/14 00:21:31;;;;;;;4.97;2.40;;;;;;;;;;5076623;28;20240;-90
2023/08/14 00:23:58;;;;;;;3.00;2.17;;;;;;;;;;5076503;28;20279;-91
2023/08/14 00:26:25;;;;;;;3.03;2.30;;;;;;;;;;5076348;28;20225;-90
2023/08/14 00:28:52;;;;;;;3.17;2.33;;;;;;;;;;5077281;28;20673;-91
2023/08/14 00:31:20;;;;;;;5.18;2.13;;;;;;;;;;5077155;28;20236;-90
2023/08/14 00:33:47;;;;;;;5.63;2.47;;;;;;;;;;5077865;28;20217;-90
2023/08/14 00:36:15;;;;;;;4.07;3.03;;;;;;;;;;5077009;28;20592;-90
2023/08/14 00:38:42;;;;;;;3.88;2.65;;;;;;;;;;5077717;28;20280;-90
2023/08/14 00:41:09;;;;;;;3.30;2.50;;;;;;;;;;5077192;28;20204;-90
2023/08/14 00:43:36;;;;;;;3.75;2.83;;;;;;;;;;5077165;28;20271;-90
2023/08/14 00:46:04;;;;;;;3.78;2.80;;;;;;;;;;5076743;28;20197;-90
2023/08/14 00:48:33;;;;;;;3.50;2.72;;;;;;;;;;5077564;28;20209;-90
2023/08/14 00:51:00;;;;;;;2.28;2.08;;;;;;;;;;5076116;28;20240;-90
2023/08/14 00:53:28;;;;;;;5.10;2.78;;;;;;;;;;5077451;28;20724;-90
2023/08/14 00:55:55;;;;;;;3.22;2.60;;;;;;;;;;5076872;28;20198;-90
2023/08/14 00:58:23;;;;;;;2.72;2.40;;;;;;;;;;5077401;28;20194;-89
2023/08/14 01:00:50;;;;;;;8.18;2.83;;;;;;;;;;5076918;28;20656;-89
2023/08/14 01:03:17;;;;;;;3.53;2.75;;;;;;;;;;5072785;28;20228;-90
2023/08/14 01:05:46;;;;;;;4.35;3.00;;;;;;;;;;5076622;28;20292;-89
2023/08/14 01:08:13;;;;;;;4.82;2.67;;;;;;;;;;5076858;28;20225;-90
2023/08/14 01:10:46;;;;;;;4.68;2.85;;;;;;;;;;5077177;28;20259;-89
2023/08/14 01:13:19;;;;;;;7.22;3.10;;;;;;;;;;5076698;28;20233;-90
2023/08/14 01:15:48;;;;;;;3.63;2.95;;;;;;;;;;5076749;28;20656;-89
2023/08/14 01:18:17;;;;;;;2.92;2.42;;;;;;;;;;5076543;28;20220;-90
2023/08/14 01:20:45;;;;;;;5.03;2.88;;;;;;;;;;5076879;28;20193;-90
2023/08/14 01:23:19;;;;;;;3.15;2.80;;;;;;;;;;5076567;28;20235;-90
2023/08/14 01:25:47;;;;;;;2.85;2.55;;;;;;;;;;5077093;28;20193;-90
2023/08/14 01:28:14;;;;;;;5.75;2.97;;;;;;;;;;5076450;28;20244;-89
2023/08/14 01:30:41;;;;;;;4.28;2.92;;;;;;;;;;5075720;28;20225;-89
2023/08/14 01:33:09;;;;;;;6.68;2.80;;;;;;;;;;5074452;28;20247;-90
2023/08/14 01:35:39;;;;;;;5.03;2.72;;;;;;;;;;5075431;28;20194;-90
2023/08/14 01:38:12;;;;;;;3.35;2.67;;;;;;;;;;5075427;28;20233;-90
2023/08/14 01:40:44;;;;;;;8.35;4.43;;;;;;;;;;5066279;28;20209;-90
2023/08/14 01:43:15;;;;;;;3.67;2.85;;;;;;;;;;5075571;28;20231;-89
2023/08/14 01:45:42;;;;;;;4.53;2.70;;;;;;;;;;5075985;28;20194;-90
2023/08/14 01:48:10;;;;;;;4.25;2.60;;;;;;;;;;5081764;28;20308;-90
2023/08/14 01:50:38;;;;;;;3.67;2.90;;;;;;;;;;5077412;28;20703;-90
2023/08/14 01:53:06;;;;;;;3.53;2.90;;;;;;;;;;5081129;28;20233;-89
2023/08/14 01:55:33;;;;;;;6.45;3.33;;;;;;;;;;5084102;28;20205;-89
2023/08/14 01:58:00;;;;;;;6.20;4.43;;;;;;;;;;5083045;28;20380;-90
2023/08/14 02:00:31;;;;;;;4.90;3.23;;;;;;;;;;5082205;28;20296;-88
2023/08/14 02:03:00;;;;;;;4.95;3.00;;;;;;;;;;5081702;28;20236;-89
2023/08/14 02:05:27;;;;;;;4.63;3.50;;;;;;;;;;5082514;28;20197;-89
2023/08/14 02:07:54;;;;;;;3.40;2.97;;;;;;;;;;5081606;28;20256;-89
2023/08/14 02:10:21;;;;;;;5.47;3.05;;;;;;;;;;5082713;28;20288;-88
2023/08/14 02:12:48;;;;;;;5.63;3.42;;;;;;;;;;5082270;28;20243;-89
2023/08/14 02:15:16;;;;;;;4.25;3.70;;;;;;;;;;5083566;28;20202;-89
2023/08/14 02:17:45;;;;;;;5.65;3.08;;;;;;;;;;5081977;28;20248;-89
2023/08/14 02:20:12;;;;;;;6.57;3.33;;;;;;;;;;5068081;28;20224;-89
2023/08/14 02:22:39;;;;;;;6.00;3.38;;;;;;;;;;5077936;28;20240;-89
2023/08/14 02:25:06;;;;;;;3.72;3.42;;;;;;;;;;5082666;28;20205;-88
2023/08/14 02:27:34;;;;;;;4.35;3.42;;;;;;;;;;5082571;28;20358;-89
2023/08/14 02:30:01;;;;;;;10.25;3.40;;;;;;;;;;5082776;28;20719;-88
2023/08/14 02:32:28;;;;;;;5.55;3.17;;;;;;;;;;5081992;28;20228;-88
2023/08/14 02:34:56;;;;;;;4.30;3.35;;;;;;;;;;5082165;28;20181;-89
2023/08/14 02:37:23;;;;;;;3.85;3.45;;;;;;;;;;5082382;28;20233;-88
2023/08/14 02:39:51;;;;;;;4.10;3.13;;;;;;;;;;5081576;28;20225;-88
2023/08/14 02:42:19;;;;;;;3.42;3.10;;;;;;;;;;5070125;28;20228;-87
2023/08/14 02:44:46;;;;;;;4.95;3.42;;;;;;;;;;5081134;28;20198;-89
2023/08/14 02:47:13;;;;;;;4.82;3.58;;;;;;;;;;5081836;28;20267;-88
2023/08/14 02:49:40;;;;;;;4.35;3.17;;;;;;;;;;5082592;28;20280;-88
2023/08/14 02:52:09;;;;;;;5.10;3.70;;;;;;;;;;5074413;28;20241;-89
2023/08/14 02:54:36;;;;;;;4.63;3.67;;;;;;;;;;5074946;28;20706;-89
2023/08/14 02:57:03;;;;;;;5.20;3.20;;;;;;;;;;5074013;28;20225;-89
2023/08/14 02:59:33;;;;;;;3.33;3.03;;;;;;;;;;5075134;28;20667;-90
2023/08/14 03:02:01;;;;;;;4.57;3.00;;;;;;;;;;5073878;28;20244;-89
2023/08/14 03:04:29;;;;;;;3.80;3.28;;;;;;;;;;5074785;28;20599;-90
2023/08/14 03:06:56;;;;;;;3.75;3.45;;;;;;;;;;5073554;28;20649;-89
2023/08/14 03:09:25;;;;;;;7.82;3.35;;;;;;;;;;5075101;28;20224;-89
2023/08/14 03:11:52;;;;;;;5.97;3.50;;;;;;;;;;5072227;28;20230;-89
2023/08/14 03:14:19;;;;;;;4.13;3.70;;;;;;;;;;5074630;28;20590;-89
2023/08/14 03:16:46;;;;;;;5.13;3.47;;;;;;;;;;5074194;28;20228;-89
2023/08/14 03:19:13;;;;;;;9.63;3.78;;;;;;;;;;5074816;28;20209;-89
2023/08/14 03:21:41;;;;;;;8.88;3.80;;;;;;;;;;5074194;28;20217;-89
2023/08/14 03:24:08;;;;;;;4.60;3.13;;;;;;;;;;5074184;28;20217;-89
2023/08/14 03:26:37;;;;;;;6.88;3.00;;;;;;;;;;5074140;28;20240;-89
2023/08/14 03:29:04;;;;;;;4.03;3.05;;;;;;;;;;5074107;28;20585;-89
2023/08/14 03:31:33;;;;;;;4.70;4.30;;;;;;;;;;5074021;28;20233;-90
2023/08/14 03:34:00;;;;;;;4.22;3.28;;;;;;;;;;5074412;28;20281;-90
2023/08/14 03:36:27;;;;;;;3.42;3.10;;;;;;;;;;5053608;28;20217;-89
2023/08/14 03:38:54;;;;;;;8.68;3.17;;;;;;;;;;5058712;28;20193;-89
2023/08/14 03:41:21;;;;;;;3.13;2.63;;;;;;;;;;5073737;28;20232;-89
2023/08/14 03:43:50;;;;;;;2.95;2.65;;;;;;;;;;5072950;28;20217;-89
2023/08/14 03:46:17;;;;;;;6.10;3.22;;;;;;;;;;5072748;28;20290;-90
2023/08/14 03:48:44;;;;;;;4.13;3.25;;;;;;;;;;5073679;28;20212;-90
2023/08/14 03:51:11;;;;;;;3.63;2.90;;;;;;;;;;5073427;28;20232;-89
2023/08/14 03:53:38;;;;;;;3.42;2.65;;;;;;;;;;5074251;28;20224;-89
2023/08/14 03:56:05;;;;;;;6.88;2.97;;;;;;;;;;5073546;28;20263;-90
2023/08/14 03:58:32;;;;;;;4.90;2.85;;;;;;;;;;5074135;28;20212;-89
2023/08/14 04:01:01;;;;;;;4.22;2.58;;;;;;;;;;5073364;28;20197;-89
2023/08/14 04:03:28;;;;;;;5.57;3.10;;;;;;;;;;5073869;28;20244;-89
2023/08/14 04:05:56;;;;;;;3.10;2.80;;;;;;;;;;5074335;28;20197;-89
2023/08/14 04:08:24;;;;;;;6.10;3.30;;;;;;;;;;5073726;28;20330;-89
2023/08/14 04:10:55;;;;;;;6.32;3.22;;;;;;;;;;5073408;28;20591;-90
2023/08/14 04:13:22;;;;;;;7.88;3.42;;;;;;;;;;5074888;28;20229;-92
2023/08/14 04:15:49;;;;;;;5.97;3.40;;;;;;;;;;5074745;28;20190;-91
2023/08/14 04:18:17;;;;;;;7.50;3.50;;;;;;;;;;5074375;28;20671;-92
2023/08/14 04:20:44;;;;;;;4.60;3.38;;;;;;;;;;5074684;28;20205;-92
2023/08/14 04:23:11;;;;;;;4.70;3.33;;;;;;;;;;5076722;28;20746;-92
2023/08/14 04:25:38;;;;;;;5.47;3.20;;;;;;;;;;5078770;28;20204;-89
2023/08/14 04:28:06;;;;;;;7.70;3.40;;;;;;;;;;5077935;28;20225;-90
2023/08/14 04:30:33;;;;;;;4.07;3.10;;;;;;;;;;5078721;28;20208;-89
2023/08/14 04:33:00;;;;;;;4.57;3.35;;;;;;;;;;5077732;28;20707;-90
2023/08/14 04:35:29;;;;;;;4.03;3.30;;;;;;;;;;5078011;28;20188;-90
2023/08/14 04:37:56;;;;;;;5.55;3.22;;;;;;;;;;5077302;28;20223;-90
2023/08/14 04:40:23;;;;;;;7.07;3.50;;;;;;;;;;5078064;28;20208;-90
2023/08/14 04:42:50;;;;;;;4.70;3.60;;;;;;;;;;5076922;28;20235;-89
2023/08/14 04:45:17;;;;;;;6.18;3.63;;;;;;;;;;5075998;28;20208;-90
2023/08/14 04:47:44;;;;;;;5.83;3.70;;;;;;;;;;5075320;28;20329;-89
2023/08/14 04:50:11;;;;;;;5.13;3.88;;;;;;;;;;5078261;28;20216;-90
2023/08/14 04:52:40;;;;;;;4.90;3.80;;;;;;;;;;5075582;28;20242;-90
2023/08/14 04:55:08;;;;;;;5.68;3.75;;;;;;;;;;5077632;28;20208;-90
2023/08/14 04:57:35;;;;;;;8.10;3.90;;;;;;;;;;5083559;28;20228;-89
2023/08/14 05:00:04;;;;;;;4.43;3.67;;;;;;;;;;5077411;28;20670;-90
2023/08/14 05:04:59;;;;;;;7.30;4.15;;;;;;;;;;5079345;28;20300;-87
2023/08/14 05:07:26;;;;;;;8.50;3.87;;;;;;;;;;5074244;28;20236;-89
2023/08/14 05:09:55;;;;;;;4.25;3.88;;;;;;;;;;5074698;28;20199;-88
2023/08/14 05:12:22;;;;;;;8.98;4.63;;;;;;;;;;5074293;28;20233;-88
2023/08/14 05:14:49;;;;;;;4.60;4.07;;;;;;;;;;5055115;28;20222;-87
2023/08/14 05:17:16;;;;;;;7.20;4.57;;;;;;;;;;5045472;28;20244;-87
2023/08/14 05:19:43;;;;;;;4.30;3.87;;;;;;;;;;5054331;28;20208;-87
2023/08/14 05:22:10;;;;;;;5.90;4.10;;;;;;;;;;5053733;28;20234;-87
2023/08/14 05:24:37;;;;;;;5.38;4.53;;;;;;;;;;5054069;28;20289;-86
2023/08/14 05:27:05;;;;;;;8.37;4.97;;;;;;;;;;5053367;28;20230;-87
2023/08/14 05:29:32;;;;;;;6.83;4.37;;;;;;;;;;5054355;28;20202;-86
2023/08/14 05:32:00;;;;;;;6.03;4.40;;;;;;;;;;5053329;28;20693;-87
2023/08/14 05:34:27;;;;;;;21.13;6.45;;;;;;;;;;5053220;28;20289;-87
2023/08/14 05:36:54;;;;;;;5.53;4.95;;;;;;;;;;5058641;28;20230;-87
2023/08/14 05:39:21;;;;;;;4.75;4.18;;;;;;;;;;5054666;28;20210;-86
2023/08/14 05:41:49;;;;;;;6.90;4.82;;;;;;;;;;5054138;28;20325;-87
2023/08/14 05:44:18;;;;;;;6.10;4.70;;;;;;;;;;5046017;28;20325;-86
2023/08/14 05:46:45;;;;;;;4.93;4.43;;;;;;;;;;5053413;28;20260;-87
2023/08/14 05:49:12;;;;;;;7.22;5.18;;;;;;;;;;5053750;28;20302;-87
2023/08/14 05:51:39;;;;;;;7.43;5.32;;;;;;;;;;5045663;28;20231;-87
2023/08/14 05:54:06;;;;;;;6.43;5.40;;;;;;;;;;5051873;28;20228;-87
2023/08/14 05:56:33;;;;;;;13.13;5.35;;;;;;;;;;5053934;28;20233;-86
2023/08/14 05:59:00;;;;;;;8.15;5.57;;;;;;;;;;5058941;28;20733;-87
2023/08/14 06:01:29;;;;;;;6.20;5.53;;;;;;;;;;5059611;28;20271;-87
2023/08/14 06:03:56;;;;;;;9.85;5.80;;;;;;;;;;5054038;28;20234;-87
2023/08/14 06:06:23;;;;;;;12.25;5.68;;;;;;;;;;5055816;28;20226;-87
2023/08/14 06:08:50;;;;;;;7.45;5.45;;;;;;;;;;5056376;28;20199;-88
2023/08/14 06:11:17;;;;;;;11.80;5.78;;;;;;;;;;5062351;28;20710;-88
2023/08/14 06:13:44;;;;;;;8.57;5.50;;;;;;;;;;5054052;28;20222;-87
2023/08/14 06:16:11;;;;;;;8.00;5.75;;;;;;;;;;5053170;28;20226;-87
2023/08/14 06:18:39;;;;;;;12.10;6.40;;;;;;;;;;5061020;28;20256;-87
2023/08/14 06:21:06;;;;;;;7.13;5.30;;;;;;;;;;5052717;28;20217;-85
2023/08/14 06:23:33;;;;;;;9.20;5.32;;;;;;;;;;5053007;28;20222;-86
2023/08/14 06:26:00;;;;;;;9.05;5.90;;;;;;;;;;5052070;28;20202;-86
2023/08/14 06:28:27;;;;;;;15.13;7.18;;;;;;;;;;5053572;28;20275;-86
2023/08/14 06:30:54;;;;;;;6.93;5.63;;;;;;;;;;5052024;28;20861;-85
2023/08/14 06:33:21;;;;;;;8.15;6.47;;;;;;;;;;5047739;28;20299;-86
2023/08/14 06:35:49;;;;;;;5.72;5.25;;;;;;;;;;5051366;28;20202;-85
2023/08/14 06:38:16;;;;;;;6.78;5.50;;;;;;;;;;5052438;28;20629;-86
2023/08/14 06:40:43;;;;;;;8.90;4.72;;;;;;;;;;5052652;28;20257;-87
2023/08/14 06:43:10;;;;;;;7.53;5.07;;;;;;;;;;5051808;28;20303;-88
2023/08/14 06:45:37;;;;;;;6.35;4.20;;;;;;;;;;5052574;28;20260;-87
2023/08/14 06:48:05;;;;;;;5.15;4.45;;;;;;;;;;5051492;28;20234;-87
2023/08/14 06:50:32;;;;;;;5.65;4.25;;;;;;;;;;5052978;28;20571;-88
2023/08/14 06:53:00;;;;;;;5.05;3.85;;;;;;;;;;5052097;28;20226;-88
2023/08/14 06:55:27;;;;;;;6.25;4.00;;;;;;;;;;5050067;28;20197;-85
2023/08/14 06:57:54;;;;;;;4.38;3.97;;;;;;;;;;5051560;28;20221;-85
2023/08/14 07:00:21;;;;;;;3.88;3.50;;;;;;;;;;5051626;28;20213;-85
2023/08/14 07:02:49;;;;;;;6.43;3.95;;;;;;;;;;5051697;28;20225;-86
2023/08/14 07:05:16;;;;;;;4.60;3.50;;;;;;;;;;5051660;28;20214;-86
2023/08/14 07:07:43;;;;;;;4.53;3.97;;;;;;;;;;5051813;28;20233;-86
2023/08/14 07:10:11;;;;;;;3.53;3.22;;;;;;;;;;5051862;28;20659;-86
2023/08/14 07:12:38;;;;;;;13.13;5.28;;;;;;;;;;5050786;28;20248;-90
2023/08/14 07:15:08;;;;;;;6.25;3.78;;;;;;;;;;5052658;28;20565;-87
2023/08/14 07:17:35;;;;;;;6.22;3.90;;;;;;;;;;5052273;28;20822;-89
2023/08/14 07:20:04;;;;;;;5.43;3.80;;;;;;;;;;5056818;28;20210;-88
2023/08/14 07:22:31;;;;;;;6.70;3.88;;;;;;;;;;5053075;28;20233;-87
2023/08/14 07:24:59;;;;;;;5.10;3.65;;;;;;;;;;5053765;28;20259;-87
2023/08/14 07:27:27;;;;;;;8.45;3.47;;;;;;;;;;5053836;28;20260;-87
2023/08/14 07:29:54;;;;;;;4.75;3.45;;;;;;;;;;5053808;28;20280;-89
2023/08/14 07:32:31;;;;;;;8.93;4.10;;;;;;;;;;5058015;28;20248;-88
2023/08/14 07:34:59;;;;;;;6.38;4.10;;;;;;;;;;5068156;28;20201;-87
2023/08/14 07:37:26;;;;;;;6.50;3.70;;;;;;;;;;5071421;28;20244;-87
2023/08/14 07:39:53;;;;;;;4.90;3.40;;;;;;;;;;5072323;28;20202;-86
2023/08/14 07:42:20;;;;;;;4.47;3.60;;;;;;;;;;5071660;28;20236;-87
2023/08/14 07:44:48;;;;;;;3.47;3.17;;;;;;;;;;5068535;28;20237;-87
2023/08/14 07:47:15;;;;;;;3.83;3.38;;;;;;;;;;5075630;28;20210;-86
2023/08/14 07:49:42;;;;;;;5.22;3.38;;;;;;;;;;5061728;28;20202;-86
2023/08/14 07:52:10;;;;;;;4.80;3.20;;;;;;;;;;5053125;28;20234;-85
2023/08/14 07:54:37;;;;;;;5.15;3.55;;;;;;;;;;5051711;28;20236;-85
2023/08/14 07:57:04;;;;;;;4.55;2.95;;;;;;;;;;5051618;28;20233;-85
2023/08/14 07:59:31;;;;;;;3.75;3.20;;;;;;;;;;5036681;28;20749;-86
2023/08/14 08:01:59;;;;;;;6.20;3.30;;;;;;;;;;5049971;28;20232;-85
2023/08/14 08:04:29;;;;;;;4.00;3.10;;;;;;;;;;5056107;28;20233;-86
2023/08/14 08:06:56;;;;;;;5.55;3.10;;;;;;;;;;5055883;28;20291;-85
2023/08/14 08:09:23;;;;;;;5.25;2.90;;;;;;;;;;5055979;28;20210;-85
2023/08/14 08:11:50;;;;;;;4.43;2.95;;;;;;;;;;5055762;28;20234;-86
2023/08/14 08:14:17;;;;;;;4.95;2.63;;;;;;;;;;5049235;28;20723;-87
2023/08/14 08:16:44;;;;;;;3.95;2.97;;;;;;;;;;5054775;28;20233;-88
2023/08/14 08:19:13;;;;;;;6.55;3.05;;;;;;;;;;5060930;28;20229;-87
2023/08/14 08:21:40;;;;;;;3.72;3.15;;;;;;;;;;5057143;28;20229;-87
2023/08/14 08:24:08;;;;;;;6.78;3.40;;;;;;;;;;5055746;28;20226;-87
2023/08/14 08:26:35;;;;;;;3.30;2.63;;;;;;;;;;5056155;28;20229;-89
2023/08/14 08:29:02;;;;;;;6.00;2.90;;;;;;;;;;5055646;28;20570;-87
2023/08/14 08:31:29;;;;;;;3.30;2.63;;;;;;;;;;5055258;28;20248;-87
2023/08/14 08:33:56;;;;;;;3.75;2.60;;;;;;;;;;5054912;28;20718;-89
2023/08/14 08:36:25;;;;;;;3.95;3.05;;;;;;;;;;5055404;28;20692;-88
2023/08/14 08:38:52;;;;;;;3.83;2.80;;;;;;;;;;5055853;28;20209;-89
2023/08/14 08:41:22;;;;;;;2.83;2.50;;;;;;;;;;5055288;28;20248;-88
2023/08/14 08:43:51;;;;;;;4.10;2.65;;;;;;;;;;5055335;28;20733;-88
2023/08/14 08:46:21;;;;;;;2.72;2.53;;;;;;;;;;5054784;28;20574;-91
2023/08/14 08:48:51;;;;;;;3.72;2.70;;;;;;;;;;5055269;28;20703;-89
2023/08/14 08:51:18;;;;;;;4.10;2.85;;;;;;;;;;5058345;28;20234;-89
2023/08/14 08:53:47;;;;;;;3.30;3.00;;;;;;;;;;5057076;28;20238;-91
2023/08/14 08:56:14;;;;;;;4.72;2.97;;;;;;;;;;5056271;28;20234;-89
2023/08/14 08:58:41;;;;;;;3.63;3.33;;;;;;;;;;5056185;28;20202;-89
2023/08/14 09:01:08;;;;;;;3.15;2.70;;;;;;;;;;5055820;28;20678;-86
2023/08/14 09:03:35;;;;;;;3.88;2.58;;;;;;;;;;5055664;28;20712;-93
2023/08/14 09:06:03;;;;;;;2.65;2.45;;;;;;;;;;5055131;28;20194;-92
2023/08/14 09:08:30;;;;;;;5.45;2.70;;;;;;;;;;5054959;28;20209;-91
2023/08/14 09:10:59;;;;;;;3.00;2.63;;;;;;;;;;5055249;28;20213;-88
2023/08/14 09:13:26;;;;;;;3.03;2.60;;;;;;;;;;5053755;28;20225;-90
2023/08/14 09:15:54;;;;;;;3.30;2.47;;;;;;;;;;5051357;28;20209;-89
2023/08/14 09:18:21;;;;;;;3.30;2.97;;;;;;;;;;5053953;28;20293;-93
2023/08/14 09:20:48;;;;;;;4.53;2.45;;;;;;;;;;5059845;28;20227;-89
2023/08/14 09:23:15;;;;;;;3.75;2.80;;;;;;;;;;5056227;28;20229;-93
2023/08/14 09:25:45;;;;;;;3.25;2.45;;;;;;;;;;5055532;28;20204;-92
2023/08/14 09:28:14;;;;;;;3.95;2.97;;;;;;;;;;5055261;28;20237;-93
2023/08/14 09:30:42;;;;;;;4.35;2.63;;;;;;;;;;5057177;28;20210;-93
2023/08/14 09:33:09;;;;;;;3.40;2.55;;;;;;;;;;5055161;28;20262;-90
2023/08/14 09:35:37;;;;;;;3.88;2.47;;;;;;;;;;5056326;28;20198;-87
2023/08/14 09:38:04;;;;;;;3.22;2.30;;;;;;;;;;5055594;28;20245;-93
2023/08/14 09:40:32;;;;;;;3.35;2.78;;;;;;;;;;5055629;28;20656;-92
2023/08/14 09:42:59;;;;;;;3.38;2.85;;;;;;;;;;5050296;28;20712;-91
2023/08/14 09:45:29;;;;;;;3.45;2.80;;;;;;;;;;5057326;28;20198;-93
2023/08/14 09:48:00;;;;;;;3.03;2.40;;;;;;;;;;5054611;28;20257;-91
2023/08/14 09:50:29;;;;;;;3.55;2.28;;;;;;;;;;5038906;28;20206;-92
2023/08/14 09:52:57;;;;;;;2.85;2.42;;;;;;;;;;5053864;28;20616;-92
2023/08/14 09:55:26;;;;;;;3.53;2.40;;;;;;;;;;5055190;28;20264;-93
2023/08/14 09:57:55;;;;;;;3.80;2.97;;;;;;;;;;5054267;28;20257;-94
2023/08/14 10:00:22;;;;;;;2.92;2.70;;;;;;;;;;5054999;28;20194;-92
2023/08/14 10:02:52;;;;;;;2.85;2.33;;;;;;;;;;5055981;28;20727;-93
2023/08/14 10:05:20;;;;;;;2.72;2.30;;;;;;;;;;5055505;28;20209;-94
2023/08/14 10:07:47;;;;;;;16.80;3.55;;;;;;;;;;5055112;28;20229;-94
2023/08/14 10:10:15;;;;;;;2.60;2.33;;;;;;;;;;5054599;28;20205;-93
2023/08/14 10:12:45;;;;;;;3.38;2.40;;;;;;;;;;5054549;28;20238;-94
2023/08/14 10:15:14;;;;;;;3.63;2.10;;;;;;;;;;5054522;28;20326;-94
2023/08/14 10:17:44;;;;;;;2.45;2.25;;;;;;;;;;5054863;28;20237;-93
2023/08/14 10:20:16;;;;;;;4.18;2.53;;;;;;;;;;5053908;28;20208;-93
2023/08/14 10:22:44;;;;;;;2.60;2.40;;;;;;;;;;5053978;28;20724;-91
2023/08/14 10:25:11;;;;;;;5.18;2.25;;;;;;;;;;5054366;28;20691;-94
2023/08/14 10:27:39;;;;;;;3.60;2.30;;;;;;;;;;5053768;28;20691;-94
2023/08/14 10:30:06;;;;;;;3.65;2.25;;;;;;;;;;5055034;28;20213;-93
2023/08/14 10:32:34;;;;;;;2.63;2.42;;;;;;;;;;5054384;28;20226;-93
2023/08/14 10:35:01;;;;;;;3.58;2.40;;;;;;;;;;5054602;28;20229;-94
2023/08/14 10:37:40;;;;;;;4.45;2.20;;;;;;;;;;5053409;28;20245;-93
2023/08/14 10:40:14;;;;;;;2.10;2.00;;;;;;;;;;5055784;28;20198;-93
2023/08/14 10:42:42;;;;;;;2.30;2.10;;;;;;;;;;5057358;28;20228;-93
2023/08/14 10:45:09;;;;;;;3.33;2.35;;;;;;;;;;5069273;28;20198;-94
2023/08/14 10:47:38;;;;;;;2.42;1.90;;;;;;;;;;5068740;28;20237;-92
2023/08/14 10:50:13;;;;;;;4.38;2.17;;;;;;;;;;5062283;28;20202;-93
2023/08/14 10:52:42;;;;;;;3.22;2.05;;;;;;;;;;5058422;28;20230;-93
2023/08/14 10:55:15;;;;;;;2.40;2.20;;;;;;;;;;5055507;28;20230;-93
2023/08/14 10:57:42;;;;;;;3.72;2.10;;;;;;;;;;5054225;28;20222;-93
2023/08/14 11:00:20;;;;;;;3.40;2.30;;;;;;;;;;5054840;28;20301;-93
2023/08/14 11:02:50;;;;;;;3.00;1.77;;;;;;;;;;5053363;28;20271;-94
2023/08/14 11:05:17;;;;;;;2.28;2.08;;;;;;;;;;5080660;22;20227;-81
2023/08/14 11:07:57;;;;;;;5.40;2.33;;;;;;;;;;5032810;28;20226;-82
2023/08/14 11:10:25;;;;;;;4.03;2.20;;;;;;;;;;5040861;28;20254;-82
2023/08/14 11:15:55;;;;;;;3.17;1.95;;;;;;;;;;5015839;28;20234;-82
2023/08/14 11:18:22;;;;;;;1.75;1.50;;;;;;;;;;5014982;28;20277;-81
2023/08/14 11:20:49;;;;;;;1.40;1.23;;;;;;;;;;5023159;28;20203;-82
2023/08/14 11:23:18;;;;;;;1.30;1.20;;;;;;;;;;5031800;28;20218;-82
2023/08/14 11:25:45;;;;;;;1.75;1.30;;;;;;;;;;5031628;28;20202;-82
2023/08/14 11:28:12;;;;;;;1.50;1.40;;;;;;;;;;5022996;28;20231;-81
2023/08/14 11:30:39;;;;;;;2.78;1.40;;;;;;;;;;5027956;28;20203;-82
2023/08/14 11:33:06;;;;;;;1.70;1.60;;;;;;;;;;5018649;28;20727;-81
2023/08/14 11:35:34;;;;;;;1.60;1.50;;;;;;;;;;5023374;28;20680;-80
2023/08/14 11:38:01;;;;;;;1.58;1.48;;;;;;;;;;5013470;28;20238;-87
2023/08/14 11:40:29;;;;;;;2.80;1.70;;;;;;;;;;5021237;28;20210;-86
2023/08/14 11:42:57;;;;;;;3.88;1.70;;;;;;;;;;5018490;28;20237;-87
2023/08/14 11:45:24;;;;;;;2.00;1.80;;;;;;;;;;5021840;28;20265;-88
2023/08/14 11:47:51;;;;;;;1.88;1.77;;;;;;;;;;5022422;28;20230;-88
2023/08/14 11:50:19;;;;;;;2.17;1.98;;;;;;;;;;5022484;28;20218;-88
2023/08/14 11:52:46;;;;;;;2.08;1.92;;;;;;;;;;5022837;28;20606;-87
2023/08/14 11:55:14;;;;;;;1.80;1.70;;;;;;;;;;5022884;28;20280;-86
2023/08/14 11:57:44;;;;;;;3.13;2.10;;;;;;;;;;5018473;28;20231;-88
2023/08/14 12:00:13;;;;;;;3.28;1.85;;;;;;;;;;5019433;28;20572;-89
2023/08/14 12:02:40;;;;;;;2.08;1.73;;;;;;;;;;5020483;28;20235;-87
2023/08/14 12:05:08;;;;;;;1.98;1.80;;;;;;;;;;5020113;28;20227;-88
2023/08/14 12:07:36;;;;;;;2.00;1.70;;;;;;;;;;5020609;28;20227;-89
2023/08/14 12:10:07;;;;;;;2.20;1.77;;;;;;;;;;5020214;28;20188;-88
2023/08/14 12:12:34;;;;;;;2.13;1.80;;;;;;;;;;5020838;28;20223;-87
2023/08/14 12:15:02;;;;;;;2.45;1.80;;;;;;;;;;5020609;28;20211;-88
2023/08/14 12:17:30;;;;;;;4.80;2.65;;;;;;;;;;5020849;28;20242;-88
2023/08/14 12:19:58;;;;;;;4.88;2.05;;;;;;;;;;5018344;28;20204;-88
2023/08/14 12:22:27;;;;;;;3.67;2.00;;;;;;;;;;5020767;28;20226;-88
2023/08/14 12:24:54;;;;;;;2.53;2.10;;;;;;;;;;5020003;28;20246;-88
2023/08/14 12:27:22;;;;;;;2.15;1.95;;;;;;;;;;5024412;28;20233;-88
2023/08/14 12:29:50;;;;;;;6.88;2.00;;;;;;;;;;5021789;28;21196;-89
2023/08/14 12:32:19;;;;;;;3.55;2.00;;;;;;;;;;5022669;28;20235;-88
2023/08/14 12:34:46;;;;;;;3.47;2.30;;;;;;;;;;5015335;28;20242;-87
2023/08/14 12:37:15;;;;;;;2.83;1.70;;;;;;;;;;5024311;28;20227;-87
2023/08/14 12:39:43;;;;;;;3.70;2.22;;;;;;;;;;5019252;28;20662;-88
2023/08/14 12:42:12;;;;;;;4.03;2.00;;;;;;;;;;5027756;28;20238;-87
2023/08/14 12:44:39;;;;;;;4.47;2.22;;;;;;;;;;5030070;28;20222;-91
2023/08/14 12:47:07;;;;;;;2.13;2.03;;;;;;;;;;5026015;28;20628;-92
2023/08/14 12:49:36;;;;;;;2.15;1.95;;;;;;;;;;5028804;28;20558;-91
2023/08/14 12:52:03;;;;;;;3.17;2.03;;;;;;;;;;5023953;28;20226;-91
2023/08/14 12:54:30;;;;;;;2.78;2.15;;;;;;;;;;5037948;28;20257;-91
2023/08/14 12:56:57;;;;;;;4.50;2.20;;;;;;;;;;5027192;28;20222;-92
2023/08/14 12:59:24;;;;;;;3.45;2.20;;;;;;;;;;5037885;28;20399;-91
2023/08/14 13:01:52;;;;;;;4.75;2.20;;;;;;;;;;5029923;28;20226;-89
2023/08/14 13:04:19;;;;;;;3.72;2.35;;;;;;;;;;5028000;28;20525;-91
2023/08/14 13:06:47;;;;;;;2.47;1.92;;;;;;;;;;5021653;28;20238;-92
2023/08/14 13:09:14;;;;;;;4.60;1.90;;;;;;;;;;5029232;28;20216;-87
2023/08/14 13:11:41;;;;;;;2.63;2.40;;;;;;;;;;5022415;28;20230;-89
2023/08/14 13:14:08;;;;;;;3.90;2.58;;;;;;;;;;5028536;28;20684;-91
2023/08/14 13:16:36;;;;;;;2.58;2.22;;;;;;;;;;5026033;28;20230;-95
2023/08/14 13:19:03;;;;;;;3.15;2.60;;;;;;;;;;5030696;28;20225;-90
2023/08/14 13:21:30;;;;;;;3.28;2.30;;;;;;;;;;5036326;28;20241;-89
2023/08/14 13:23:59;;;;;;;3.50;2.60;;;;;;;;;;5035635;28;20218;-90
2023/08/14 13:26:26;;;;;;;3.45;2.13;;;;;;;;;;5023084;28;20234;-88
2023/08/14 13:28:53;;;;;;;5.10;2.53;;;;;;;;;;5021202;28;20258;-89
2023/08/14 13:31:20;;;;;;;4.28;3.05;;;;;;;;;;5024616;28;20234;-91
2023/08/14 13:33:47;;;;;;;3.20;2.30;;;;;;;;;;5029035;28;20227;-91
2023/08/14 13:36:14;;;;;;;2.55;2.10;;;;;;;;;;5023239;28;20237;-89
2023/08/14 13:38:41;;;;;;;2.83;2.28;;;;;;;;;;5036780;28;20640;-90
2023/08/14 13:41:10;;;;;;;3.47;2.53;;;;;;;;;;5030352;28;20239;-90
2023/08/14 13:43:37;;;;;;;2.97;2.33;;;;;;;;;;5027420;28;20229;-90
2023/08/14 13:46:04;;;;;;;3.80;2.22;;;;;;;;;;5035950;28;20238;-90
2023/08/14 13:48:31;;;;;;;3.08;2.47;;;;;;;;;;5034851;28;20207;-90
2023/08/14 13:50:59;;;;;;;3.75;2.30;;;;;;;;;;5017206;28;20658;-90
2023/08/14 13:53:26;;;;;;;4.78;2.53;;;;;;;;;;5035395;28;20246;-89
2023/08/14 13:55:53;;;;;;;3.10;2.75;;;;;;;;;;5020190;28;20235;-89
2023/08/14 13:58:21;;;;;;;3.58;2.45;;;;;;;;;;5025672;28;20218;-88
2023/08/14 14:00:48;;;;;;;4.10;2.40;;;;;;;;;;5038894;28;20208;-88
2023/08/14 14:03:15;;;;;;;4.88;2.60;;;;;;;;;;5028714;28;20825;-89
2023/08/14 14:05:42;;;;;;;3.17;2.40;;;;;;;;;;5035598;28;20576;-89
2023/08/14 14:08:09;;;;;;;2.80;2.50;;;;;;;;;;5022970;28;20235;-89
2023/08/14 14:10:36;;;;;;;4.53;2.45;;;;;;;;;;5020714;28;20200;-88
2023/08/14 14:13:04;;;;;;;3.85;2.63;;;;;;;;;;5028872;28;20223;-89
2023/08/14 14:15:32;;;;;;;3.70;2.40;;;;;;;;;;5029971;28;20230;-87
2023/08/14 14:17:59;;;;;;;3.08;2.53;;;;;;;;;;5038346;28;20225;-87
2023/08/14 14:20:27;;;;;;;3.55;2.92;;;;;;;;;;5032462;28;20233;-89
2023/08/14 14:22:54;;;;;;;3.45;2.47;;;;;;;;;;5038844;28;20290;-88
2023/08/14 14:25:21;;;;;;;3.58;2.55;;;;;;;;;;5039426;28;20234;-88
2023/08/14 14:27:48;;;;;;;6.65;3.08;;;;;;;;;;5026949;28;20223;-88
2023/08/14 14:30:15;;;;;;;4.72;3.05;;;;;;;;;;5017553;28;20214;-88
2023/08/14 14:32:43;;;;;;;3.67;2.88;;;;;;;;;;5022450;28;20234;-89
2023/08/14 14:35:11;;;;;;;3.10;2.80;;;;;;;;;;5023616;28;20231;-89
2023/08/14 14:37:38;;;;;;;3.10;2.67;;;;;;;;;;5025242;28;20233;-89
2023/08/14 14:40:05;;;;;;;3.35;2.85;;;;;;;;;;5017668;28;20210;-89
2023/08/14 14:42:32;;;;;;;4.00;2.75;;;;;;;;;;5017565;28;20241;-89
2023/08/14 14:44:59;;;;;;;7.07;2.70;;;;;;;;;;5029955;28;20230;-89
2023/08/14 14:47:27;;;;;;;4.78;2.60;;;;;;;;;;5022127;28;20231;-89
2023/08/14 14:49:55;;;;;;;4.00;2.92;;;;;;;;;;5029184;28;20205;-89
2023/08/14 14:52:22;;;;;;;2.58;2.38;;;;;;;;;;5023412;28;20235;-90